createdAt,value
2023-01-30T00:01:19.204Z,102033.84
2023-01-30T00:03:46.901Z,102035.41
2023-01-30T00:06:14.843Z,102037.22
2023-01-30T00:08:42.351Z,102045.00
2023-01-30T00:11:12.214Z,102037.28
2023-01-30T00:13:41.107Z,102035.47
2023-01-30T00:16:12.466Z,102029.56
2023-01-30T00:18:41.628Z,102026.16
2023-01-30T00:21:11.637Z,102022.09
2023-01-30T00:23:39.353Z,102025.91
2023-01-30T00:26:07.715Z,102018.31
2023-01-30T00:28:35.596Z,102017.63
2023-01-30T00:31:04.593Z,102012.03
2023-01-30T00:33:36.482Z,102014.94
2023-01-30T00:36:04.628Z,102006.91
2023-01-30T00:38:31.994Z,102008.00
2023-01-30T00:40:59.299Z,102009.41
2023-01-30T00:43:45.714Z,102005.97
2023-01-30T00:46:45.184Z,102003.09
2023-01-30T00:49:12.750Z,102000.81
2023-01-30T00:51:40.235Z,101999.22
2023-01-30T00:54:08.217Z,101994.81
2023-01-30T00:56:35.581Z,101996.09
2023-01-30T00:59:04.219Z,102004.03
2023-01-30T01:01:31.469Z,102003.03
2023-01-30T01:03:58.773Z,101998.16
2023-01-30T01:06:26.186Z,102001.84
2023-01-30T01:08:53.606Z,102002.19
2023-01-30T01:11:27.078Z,102004.31
2023-01-30T01:14:00.433Z,102002.59
2023-01-30T01:16:29.472Z,101997.72
2023-01-30T01:18:59.451Z,101988.84
2023-01-30T01:21:26.811Z,101993.91
2023-01-30T01:23:57.052Z,101989.84
2023-01-30T01:26:24.997Z,101997.97
2023-01-30T01:28:57.036Z,101995.13
2023-01-30T01:31:25.551Z,101995.66
2023-01-30T01:33:52.918Z,101987.69
2023-01-30T01:36:49.766Z,101982.69
2023-01-30T01:39:09.972Z,101977.03
2023-01-30T01:41:37.328Z,101964.47
2023-01-30T01:44:12.275Z,101956.97
2023-01-30T01:46:48.756Z,101965.44
2023-01-30T01:49:27.958Z,101965.22
2023-01-30T01:52:00.885Z,101963.22
2023-01-30T01:54:39.927Z,101962.50
2023-01-30T01:57:15.209Z,101958.03
2023-01-30T01:59:59.325Z,101960.44
2023-01-30T02:02:27.212Z,101957.78
2023-01-30T02:05:02.023Z,101956.28
2023-01-30T02:07:36.925Z,101942.78
2023-01-30T02:10:06.866Z,101940.53
2023-01-30T02:12:34.758Z,101948.41
2023-01-30T02:15:04.520Z,101952.59
2023-01-30T05:33:47.385Z,101821.25
2023-01-30T05:36:17.056Z,101813.72
2023-01-30T05:38:45.403Z,101814.56
2023-01-30T05:41:14.882Z,101817.63
2023-01-30T05:43:43.192Z,101822.66
2023-01-30T05:46:12.583Z,101818.56
2023-01-30T05:48:40.371Z,101823.16
2023-01-30T05:51:16.716Z,101822.19
2023-01-30T05:53:44.513Z,101828.38
2023-01-30T05:56:12.275Z,101827.81
2023-01-30T05:58:39.560Z,101830.09
2023-01-30T06:01:09.790Z,101831.91
2023-01-30T06:03:37.955Z,101836.41
2023-01-30T06:06:06.307Z,101832.00
2023-01-30T06:08:34.010Z,101842.97
2023-01-30T06:11:08.156Z,101831.38
2023-01-30T06:13:36.353Z,101824.84
2023-01-30T06:16:04.569Z,101816.47
2023-01-30T06:18:31.980Z,101810.91
2023-01-30T06:20:59.336Z,101813.56
2023-01-30T06:23:28.285Z,101814.56
2023-01-30T06:25:56.194Z,101805.91
2023-01-30T06:28:25.683Z,101826.28
2023-01-30T06:30:53.628Z,101826.28
2023-01-30T06:33:21.234Z,101823.16
2023-01-30T06:35:50.882Z,101829.66
2023-01-30T06:38:20.618Z,101832.00
2023-01-30T06:40:50.103Z,101826.59
2023-01-30T06:43:17.929Z,101825.34
2023-01-30T06:45:45.753Z,101818.44
2023-01-30T06:48:13.925Z,101821.69
2023-01-30T06:50:41.202Z,101820.97
2023-01-30T06:53:08.959Z,101808.56
2023-01-30T06:55:36.896Z,101810.50
2023-01-30T06:58:14.819Z,101821.53
2023-01-30T07:00:43.410Z,101806.38
2023-01-30T07:03:16.056Z,101794.22
2023-01-30T07:05:45.003Z,101794.06
2023-01-30T07:08:13.690Z,101800.66
2023-01-30T07:10:42.525Z,101819.72
2023-01-30T07:13:10.040Z,101809.34
2023-01-30T07:15:37.786Z,101822.41
2023-01-30T07:18:05.571Z,101828.09
2023-01-30T07:20:33.289Z,101819.53
2023-01-30T07:23:01.800Z,101822.41
2023-01-30T07:25:30.377Z,101807.59
2023-01-30T07:27:59.907Z,101815.31
2023-01-30T07:30:29.519Z,101820.81
2023-01-30T07:32:58.670Z,101800.00
2023-01-30T07:35:29.348Z,101802.47
2023-01-30T07:37:57.951Z,101797.97
2023-01-30T07:40:26.694Z,101794.59
2023-01-30T07:43:02.812Z,101791.38
2023-01-30T07:45:42.926Z,101790.84
2023-01-30T07:48:16.573Z,101797.06
2023-01-30T07:50:45.114Z,101788.34
2023-01-30T07:53:15.276Z,101785.91
2023-01-30T07:55:43.143Z,101780.53
2023-01-30T07:58:14.678Z,101778.94
2023-01-30T08:00:42.741Z,101781.94
2023-01-30T08:03:16.094Z,101778.94
2023-01-30T08:05:47.028Z,101769.50
2023-01-30T08:08:15.898Z,101768.34
2023-01-30T08:10:45.461Z,101774.25
2023-01-30T08:13:13.049Z,101763.44
2023-01-30T08:15:40.444Z,101753.44
2023-01-30T08:18:08.464Z,101748.00
2023-01-30T08:20:36.674Z,101747.03
2023-01-30T08:23:04.369Z,101749.06
2023-01-30T08:25:32.245Z,101735.31
2023-01-30T08:28:00.420Z,101734.59
2023-01-30T08:30:30.441Z,101745.88
2023-01-30T08:32:58.450Z,101757.75
2023-01-30T08:35:26.568Z,101768.44
2023-01-30T08:37:54.090Z,101773.25
2023-01-30T08:40:21.557Z,101768.34
2023-01-30T08:42:48.933Z,101768.97
2023-01-30T08:45:16.301Z,101768.25
2023-01-30T08:47:43.637Z,101744.78
2023-01-30T08:50:11.903Z,101762.47
2023-01-30T08:52:39.416Z,101752.81
2023-01-30T08:55:07.118Z,101747.59
2023-01-30T08:57:34.779Z,101744.91
2023-01-30T09:00:02.600Z,101754.34
2023-01-30T09:02:31.172Z,101743.44
2023-01-30T09:04:58.509Z,101741.81
2023-01-30T09:07:27.681Z,101737.78
2023-01-30T09:09:55.488Z,101722.78
2023-01-30T09:12:22.849Z,101731.59
2023-01-30T09:14:50.267Z,101745.22
2023-01-30T09:17:17.889Z,101741.94
2023-01-30T09:19:45.186Z,101743.59
2023-01-30T09:22:12.524Z,101734.78
2023-01-30T09:24:40.202Z,101737.44
2023-01-30T09:27:07.610Z,101738.94
2023-01-30T09:29:35.001Z,101730.78
2023-01-30T09:32:02.568Z,101725.50
2023-01-30T09:34:29.878Z,101719.19
2023-01-30T09:37:04.362Z,101716.13
2023-01-30T09:39:32.018Z,101713.81
2023-01-30T09:42:05.686Z,101721.25
2023-01-30T09:44:51.620Z,101717.16
2023-01-30T09:47:38.704Z,101742.16
2023-01-30T09:50:17.697Z,101741.91
2023-01-30T09:53:24.029Z,101759.81
2023-01-30T09:55:51.801Z,101751.22
2023-01-30T09:58:22.717Z,101740.00
2023-01-30T10:00:56.962Z,101724.03
2023-01-30T10:03:30.130Z,101721.97
2023-01-30T10:06:12.915Z,101715.25
2023-01-30T10:08:49.877Z,101698.19
2023-01-30T10:11:54.177Z,101688.38
2023-01-30T10:14:47.520Z,101693.50
2023-01-30T10:17:24.493Z,101694.50
2023-01-30T10:20:10.669Z,101684.84
2023-01-30T10:23:15.921Z,101682.91
2023-01-30T10:25:55.156Z,101677.56
2023-01-30T10:28:30.645Z,101665.47
2023-01-30T10:31:10.053Z,101657.63
2023-01-30T10:33:57.853Z,101647.13
2023-01-30T10:36:32.723Z,101627.53
2023-01-30T10:39:02.730Z,101630.66
2023-01-30T10:41:37.678Z,101620.06
2023-01-30T10:44:13.485Z,101617.19
2023-01-30T10:46:49.493Z,101625.41
2023-01-30T10:49:25.812Z,101626.72
2023-01-30T10:52:15.148Z,101618.81
2023-01-30T10:55:22.148Z,101619.50
2023-01-30T10:58:20.029Z,101601.97
2023-01-30T11:01:00.830Z,101599.06
2023-01-30T11:03:38.246Z,101607.19
2023-01-30T11:06:17.308Z,101587.19
2023-01-30T11:08:45.271Z,101562.78
2023-01-30T11:11:33.718Z,101550.06
2023-01-30T11:14:09.988Z,101548.22
2023-01-30T11:16:50.732Z,101525.31
2023-01-30T11:19:23.676Z,101546.00
2023-01-30T11:21:53.589Z,101547.22
2023-01-30T11:24:31.352Z,101517.97
2023-01-30T11:27:27.778Z,101513.03
2023-01-30T11:30:17.732Z,101495.66
2023-01-30T11:32:49.295Z,101493.69
2023-01-30T11:35:25.821Z,101494.59
2023-01-30T11:37:54.357Z,101489.78
2023-01-30T11:40:28.050Z,101489.28
2023-01-30T11:43:27.211Z,101481.56
2023-01-30T11:45:55.774Z,101483.00
2023-01-30T11:48:33.765Z,101481.69
2023-01-30T11:51:16.824Z,101455.66
2023-01-30T11:53:51.436Z,101455.22
2023-01-30T11:56:31.187Z,101455.06
2023-01-30T11:59:01.804Z,101432.31
2023-01-30T12:01:34.524Z,101431.75
2023-01-30T12:04:07.396Z,101427.59
2023-01-30T12:06:37.717Z,101416.28
2023-01-30T12:09:06.535Z,101411.03
2023-01-30T12:11:37.048Z,101405.59
2023-01-30T12:14:15.260Z,101404.94
2023-01-30T12:16:54.810Z,101398.47
2023-01-30T12:19:45.352Z,101390.81
2023-01-30T12:22:26.557Z,101382.72
2023-01-30T12:24:58.522Z,101391.50
2023-01-30T12:27:44.816Z,101382.28
2023-01-30T12:30:25.215Z,101379.88
2023-01-30T12:32:58.524Z,101379.19
2023-01-30T12:35:52.392Z,101380.50
2023-01-30T12:38:34.963Z,101396.47
2023-01-30T12:41:08.342Z,101394.56
2023-01-30T12:43:47.557Z,101390.56
2023-01-30T12:46:39.892Z,101387.38
2023-01-30T12:49:31.676Z,101345.38
2023-01-30T12:52:21.377Z,101299.53
2023-01-30T12:55:05.253Z,101292.84
2023-01-30T12:57:44.297Z,101295.78
2023-01-30T13:00:22.284Z,101299.19
2023-01-30T13:03:09.855Z,101295.25
2023-01-30T13:06:19.367Z,101289.88
2023-01-30T13:08:55.456Z,101288.09
2023-01-30T13:11:48.141Z,101278.03
2023-01-30T13:14:27.529Z,101280.75
2023-01-30T13:17:09.710Z,101288.84
2023-01-30T13:19:45.254Z,101289.81
2023-01-30T13:22:31.853Z,101273.84
2023-01-30T13:25:22.413Z,101277.78
2023-01-30T13:27:57.671Z,101267.00
2023-01-30T13:30:27.741Z,101274.31
2023-01-30T13:33:00.010Z,101260.38
2023-01-30T13:35:45.624Z,101259.25
2023-01-30T13:38:24.716Z,101234.78
2023-01-30T13:40:56.705Z,101224.28
2023-01-30T13:43:42.418Z,101235.50
2023-01-30T13:46:14.316Z,101231.00
2023-01-30T13:49:04.038Z,101227.69
2023-01-30T13:51:49.441Z,101231.91
2023-01-30T13:54:43.030Z,101219.09
2023-01-30T13:57:19.754Z,101210.28
2023-01-30T14:00:09.953Z,101209.59
2023-01-30T14:03:05.810Z,101215.75
2023-01-30T14:06:24.982Z,101209.28
2023-01-30T14:08:59.458Z,101217.06
2023-01-30T14:11:34.854Z,101212.81
2023-01-30T14:14:25.594Z,101219.91
2023-01-30T14:17:15.060Z,101207.28
2023-01-30T14:19:43.877Z,101200.66
2023-01-30T14:22:34.671Z,101199.00
2023-01-30T14:25:29.991Z,101191.19
2023-01-30T14:28:00.401Z,101167.84
2023-01-30T14:30:49.440Z,101178.38
2023-01-30T14:33:19.417Z,101169.03
2023-01-30T14:36:07.408Z,101165.13
2023-01-30T14:38:38.629Z,101164.06
2023-01-30T14:41:09.391Z,101159.13
2023-01-30T14:43:42.779Z,101161.84
2023-01-30T14:46:13.275Z,101153.38
2023-01-30T14:48:56.886Z,101157.56
2023-01-30T14:51:45.001Z,101151.97
2023-01-30T14:54:13.293Z,101164.69
2023-01-30T14:56:50.186Z,101167.34
2023-01-30T14:59:17.448Z,101151.66
2023-01-30T15:02:00.034Z,101139.63
2023-01-30T15:04:39.973Z,101131.00
2023-01-30T15:07:22.385Z,101157.56
2023-01-30T15:09:59.042Z,101152.66
2023-01-30T15:12:55.885Z,101141.84
2023-01-30T15:15:34.742Z,101143.44
2023-01-30T15:18:51.875Z,101137.47
2023-01-30T15:21:29.319Z,101140.63
2023-01-30T15:24:21.925Z,101127.81
2023-01-30T15:27:07.551Z,101141.16
2023-01-30T15:29:53.775Z,101147.84
2023-01-30T15:32:22.510Z,101149.94
2023-01-30T15:35:02.420Z,101151.81
2023-01-30T15:37:36.474Z,101149.38
2023-01-30T15:40:16.845Z,101145.16
2023-01-30T15:42:47.394Z,101143.25
2023-01-30T15:45:17.708Z,101148.84
2023-01-30T15:48:06.573Z,101152.97
2023-01-30T15:50:33.986Z,101147.84
2023-01-30T15:53:01.892Z,101138.72
2023-01-30T15:55:33.809Z,101144.81
2023-01-30T15:58:06.237Z,101148.53
2023-01-30T16:00:37.834Z,101151.75
2023-01-30T16:03:11.015Z,101143.72
2023-01-30T16:05:47.412Z,101143.38
2023-01-30T16:08:26.991Z,101146.47
2023-01-30T16:10:54.886Z,101148.47
2023-01-30T16:13:23.850Z,101150.94
2023-01-30T16:16:07.423Z,101159.47
2023-01-30T16:18:42.957Z,101160.91
2023-01-30T16:21:21.401Z,101160.84
2023-01-30T16:24:00.602Z,101168.88
2023-01-30T16:26:28.989Z,101173.56
2023-01-30T16:29:06.424Z,101171.63
2023-01-30T16:31:37.809Z,101182.94
2023-01-30T16:34:05.836Z,101172.41
2023-01-30T16:36:39.862Z,101167.34
2023-01-30T16:39:29.682Z,101179.66
2023-01-30T16:41:59.653Z,101181.47
2023-01-30T16:44:31.904Z,101184.94
2023-01-30T16:47:23.482Z,101173.28
2023-01-30T16:49:52.816Z,101174.06
2023-01-30T16:52:44.381Z,101170.66
2023-01-30T16:55:21.107Z,101175.91
2023-01-30T16:58:00.076Z,101177.47
2023-01-30T17:00:50.424Z,101169.06
2023-01-30T17:03:26.696Z,101167.06
2023-01-30T17:05:54.350Z,101167.59
2023-01-30T17:08:31.420Z,101173.97
2023-01-30T17:11:03.803Z,101175.06
2023-01-30T17:13:37.455Z,101164.72
2023-01-30T17:16:23.219Z,101155.88
2023-01-30T17:18:53.144Z,101169.66
2023-01-30T17:21:22.873Z,101160.44
2023-01-30T17:24:01.271Z,101152.44
2023-01-30T17:26:30.221Z,101157.84
2023-01-30T17:28:58.182Z,101158.84
2023-01-30T17:31:25.731Z,101171.75
2023-01-30T17:33:53.199Z,101162.66
2023-01-30T17:36:25.136Z,101162.63
2023-01-30T17:38:55.073Z,101155.88
2023-01-30T17:41:33.394Z,101160.41
2023-01-30T17:44:01.261Z,101158.72
2023-01-30T17:46:51.840Z,101159.72
2023-01-30T17:49:22.219Z,101170.97
2023-01-30T17:51:53.924Z,101156.63
2023-01-30T17:54:22.568Z,101162.94
2023-01-30T17:56:55.958Z,101170.66
2023-01-30T17:59:23.286Z,101175.03
2023-01-30T18:01:52.478Z,101172.13
2023-01-30T18:04:20.610Z,101183.13
2023-01-30T18:06:55.912Z,101171.31
2023-01-30T18:09:24.389Z,101181.59
2023-01-30T18:11:51.686Z,101176.22
2023-01-30T18:14:19.069Z,101188.22
2023-01-30T18:16:46.535Z,101191.22
2023-01-30T18:19:17.958Z,101198.50
2023-01-30T18:21:45.656Z,101192.00
2023-01-30T18:24:14.588Z,101193.13
2023-01-30T18:26:43.024Z,101199.25
2023-01-30T18:29:11.086Z,101196.72
2023-01-30T18:31:40.068Z,101189.28
2023-01-30T18:34:09.828Z,101187.00
2023-01-30T18:36:38.214Z,101186.91
2023-01-30T18:39:06.074Z,101188.31
2023-01-30T18:41:35.275Z,101200.13
2023-01-30T18:44:06.484Z,101206.94
2023-01-30T18:46:34.438Z,101191.22
2023-01-30T18:49:02.302Z,101183.81
2023-01-30T18:51:33.977Z,101182.25
2023-01-30T18:54:01.936Z,101188.06
2023-01-30T18:56:31.763Z,101182.03
2023-01-30T18:59:04.477Z,101178.63
2023-01-30T19:01:35.437Z,101178.94
2023-01-30T19:04:04.443Z,101188.03
2023-01-30T19:06:35.717Z,101189.00
2023-01-30T19:09:03.770Z,101191.53
2023-01-30T19:11:51.278Z,101199.91
2023-01-30T19:14:18.947Z,101187.75
2023-01-30T19:16:47.567Z,101184.44
2023-01-30T19:19:15.058Z,101187.94
2023-01-30T19:21:42.789Z,101179.69
2023-01-30T19:24:15.511Z,101191.00
2023-01-30T19:26:43.004Z,101189.06
2023-01-30T19:29:10.383Z,101177.88
2023-01-30T19:31:38.137Z,101178.13
2023-01-30T19:34:06.318Z,101183.81
2023-01-30T19:36:36.543Z,101196.56
2023-01-30T19:39:06.033Z,101197.81
2023-01-30T19:41:36.217Z,101193.41
2023-01-30T19:44:06.747Z,101192.16
2023-01-30T19:46:34.899Z,101197.81
2023-01-30T19:49:03.448Z,101202.50
2023-01-30T19:51:33.490Z,101209.34
2023-01-30T19:54:06.608Z,101215.16
2023-01-30T19:56:34.945Z,101219.81
2023-01-30T19:59:02.749Z,101224.78
2023-01-30T20:01:35.331Z,101214.75
2023-01-30T20:04:03.710Z,101221.63
2023-01-30T20:06:34.400Z,101218.97
2023-01-30T20:09:05.300Z,101233.50
2023-01-30T20:11:37.569Z,101233.31
2023-01-30T20:14:07.111Z,101245.94
2023-01-30T20:16:36.084Z,101241.94
2023-01-30T20:19:14.549Z,101230.44
2023-01-30T20:21:43.161Z,101216.16
2023-01-30T20:24:15.580Z,101217.41
2023-01-30T20:26:45.816Z,101226.09
2023-01-30T20:29:16.768Z,101230.53
2023-01-30T20:31:45.359Z,101233.78
2023-01-30T20:34:14.563Z,101228.81
2023-01-30T20:36:43.013Z,101240.97
2023-01-30T20:39:11.480Z,101243.59
2023-01-30T20:41:39.024Z,101259.00
2023-01-30T20:44:08.436Z,101246.81
2023-01-30T20:46:43.386Z,101261.59
2023-01-30T20:49:12.502Z,101260.13
2023-01-30T20:51:40.314Z,101255.59
2023-01-30T20:54:10.589Z,101256.84
2023-01-30T20:56:42.858Z,101258.31
2023-01-30T20:59:13.644Z,101266.38
2023-01-30T21:01:42.296Z,101266.78
2023-01-30T21:04:14.619Z,101271.53
2023-01-30T21:06:45.736Z,101272.16
2023-01-30T21:09:22.571Z,101278.03
2023-01-30T21:11:52.504Z,101284.53
2023-01-30T21:14:19.880Z,101292.84
2023-01-30T21:16:48.603Z,101291.00
2023-01-30T21:19:17.629Z,101293.25
2023-01-30T21:21:50.580Z,101308.59
2023-01-30T21:24:39.274Z,101314.81
2023-01-30T21:27:26.494Z,101322.59
2023-01-30T21:30:12.914Z,101328.59
2023-01-30T21:32:59.001Z,101333.63
2023-01-30T21:35:45.009Z,101331.78
2023-01-30T21:38:49.634Z,101341.19
2023-01-30T21:41:59.906Z,101347.00
2023-01-30T21:44:46.180Z,101354.75
2023-01-30T21:47:32.602Z,101380.59
2023-01-30T21:50:18.531Z,101372.94
2023-01-30T21:53:05.059Z,101392.25
2023-01-30T21:55:52.507Z,101392.78
2023-01-30T21:58:38.720Z,101398.56
2023-01-30T22:01:25.302Z,101386.34
2023-01-30T22:04:14.757Z,101383.16
2023-01-30T22:07:01.273Z,101399.13
2023-01-30T22:09:48.823Z,101416.81
2023-01-30T22:12:38.689Z,101416.94
2023-01-30T22:15:26.345Z,101420.72
2023-01-30T22:18:12.469Z,101431.13
2023-01-30T22:21:18.503Z,101444.03
2023-01-30T22:24:07.409Z,101436.63
2023-01-30T22:26:53.262Z,101440.09
2023-01-30T22:29:39.701Z,101451.56
2023-01-30T22:32:25.569Z,101457.06
2023-01-30T22:35:12.077Z,101459.81
2023-01-30T22:37:57.785Z,101465.50
2023-01-30T22:40:43.563Z,101468.00
2023-01-30T22:43:31.410Z,101477.09
2023-01-30T22:46:18.369Z,101482.91
2023-01-30T22:49:06.585Z,101487.44
2023-01-30T22:51:52.409Z,101495.56
2023-01-30T22:54:38.238Z,101501.47
2023-01-30T22:57:24.702Z,101510.75
2023-01-30T23:00:11.414Z,101489.75
2023-01-30T23:02:58.281Z,101504.16
2023-01-30T23:05:44.433Z,101518.19
2023-01-30T23:08:31.653Z,101522.56
2023-01-30T23:11:24.066Z,101533.81
2023-01-30T23:14:13.187Z,101527.09
2023-01-30T23:16:59.703Z,101534.88
2023-01-30T23:19:45.785Z,101529.75
2023-01-30T23:22:31.905Z,101527.31
2023-01-30T23:25:18.413Z,101536.47
2023-01-30T23:28:04.416Z,101545.34
2023-01-30T23:30:50.180Z,101548.41
2023-01-30T23:33:36.453Z,101548.56
2023-01-30T23:36:22.990Z,101573.28
2023-01-30T23:39:12.091Z,101572.19
2023-01-30T23:41:57.928Z,101565.00
2023-01-30T23:44:43.860Z,101572.53
2023-01-30T23:47:29.624Z,101574.59
2023-01-30T23:50:15.804Z,101590.00
2023-01-30T23:53:04.290Z,101574.03
2023-01-30T23:55:52.063Z,101571.22
2023-01-30T23:58:38.983Z,101584.16
